Time;durP1;ratioP1;P1;durP2;ratioP2;P2;SDS_P1;SDS_P2;PMS_P1;PMS_P2;Temp;Humidity;BMP_temperature;BMP_pressure;BME280_temperature;BME280_humidity;BME280_pressure;Samples;Min_cycle;Max_cycle;Signal;HPM_P1;HPM_P2
2022/08/11 00:01:27;;;;;;;;;;;;;;;20.82;50.08;102220.44;5034305;28;20361;-36
2022/08/11 00:03:54;;;;;;;;;;;;;;;20.81;49.38;102224.28;5033776;28;20007;-36
2022/08/11 00:06:28;;;;;;;;;;;;;;;20.75;49.40;102217.94;5033656;28;20078;-36
2022/08/11 00:08:54;;;;;;;;;;;;;;;20.73;49.15;102220.13;5033250;28;20031;-36
2022/08/11 00:11:20;;;;;;;;;;;;;;;20.68;49.79;102220.09;5049432;28;19995;-36
2022/08/11 00:13:47;;;;;;;;;;;;;;;20.64;49.77;102221.69;5033931;28;19920;-36
2022/08/11 00:16:30;;;;;;;;;;;;;;;20.62;49.42;102226.66;5033416;28;19943;-36
2022/08/11 00:18:56;;;;;;;;;;;;;;;20.59;49.26;102218.91;5033913;28;20293;-36
2022/08/11 00:21:24;;;;;;;;;;;;;;;20.58;49.27;102220.84;5034260;28;19923;-36
2022/08/11 00:23:54;;;;;;;;;;;;;;;20.57;49.57;102219.19;5033739;28;19967;-36
2022/08/11 00:26:20;;;;;;;;;;;;;;;20.54;49.71;102224.38;5034221;28;20233;-36
2022/08/11 00:28:45;;;;;;;;;;;;;;;20.52;49.78;102216.41;5033404;28;19913;-36
2022/08/11 00:31:20;;;;;;;;;;;;;;;20.48;49.54;102217.22;5033708;28;19940;-36
2022/08/11 00:33:46;;;;;;;;;;;;;;;20.44;50.00;102221.53;5033641;28;19948;-36
2022/08/11 00:36:14;;;;;;;;;;;;;;;20.41;50.49;102214.66;5033176;28;20392;-36
2022/08/11 00:38:40;;;;;;;;;;;;;;;20.39;49.98;102216.00;5033367;28;20028;-36
2022/08/11 00:41:08;;;;;;;;;;;;;;;20.36;49.79;102220.13;5033387;28;19913;-36
2022/08/11 00:43:39;;;;;;;;;;;;;;;20.36;49.82;102211.06;5033273;28;19917;-36
2022/08/11 00:46:18;;;;;;;;;;;;;;;20.35;50.33;102214.88;5033721;28;19927;-36
2022/08/11 00:49:02;;;;;;;;;;;;;;;20.35;50.34;102217.63;5033455;28;19967;-36
2022/08/11 00:51:27;;;;;;;;;;;;;;;20.30;49.99;102216.53;5033286;28;20349;-36
2022/08/11 00:53:58;;;;;;;;;;;;;;;20.30;50.66;102219.25;5033089;28;19959;-36
2022/08/11 00:56:36;;;;;;;;;;;;;;;20.25;50.15;102210.13;5033859;28;19959;-36
2022/08/11 00:59:10;;;;;;;;;;;;;;;20.24;50.31;102214.81;5033194;28;20004;-36
2022/08/11 01:01:47;;;;;;;;;;;;;;;20.20;50.14;102213.66;5033815;28;19964;-43
2022/08/11 01:04:12;;;;;;;;;;;;;;;20.17;50.44;102224.38;5033379;28;19921;-36
2022/08/11 01:06:50;;;;;;;;;;;;;;;20.14;50.42;102216.66;5032751;28;19967;-36
2022/08/11 01:09:34;;;;;;;;;;;;;;;20.09;50.90;102220.16;5033230;28;20012;-36
2022/08/11 01:12:08;;;;;;;;;;;;;;;20.06;50.96;102217.97;5033075;28;19913;-36
2022/08/11 01:15:09;;;;;;;;;;;;;;;20.01;52.18;102218.75;5032686;28;19920;-36
2022/08/11 01:17:49;;;;;;;;;;;;;;;19.97;51.50;102217.63;5030505;28;19920;-36
2022/08/11 01:20:33;;;;;;;;;;;;;;;19.93;51.14;102210.16;5030701;28;19925;-36
2022/08/11 01:23:07;;;;;;;;;;;;;;;19.90;51.29;102210.66;5034169;28;19963;-36
2022/08/11 01:25:48;;;;;;;;;;;;;;;19.88;50.99;102215.59;5035017;28;19939;-36
2022/08/11 01:28:22;;;;;;;;;;;;;;;19.84;51.90;102219.94;5034306;28;19971;-36
2022/08/11 01:31:06;;;;;;;;;;;;;;;19.82;51.82;102222.13;5034618;28;19913;-36
2022/08/11 01:33:49;;;;;;;;;;;;;;;19.82;52.10;102222.97;5034671;28;19913;-36
2022/08/11 01:36:15;;;;;;;;;;;;;;;19.78;52.78;102222.66;5034250;28;19913;-36
2022/08/11 01:38:58;;;;;;;;;;;;;;;19.76;53.08;102218.50;5034359;28;19919;-36
2022/08/11 01:44:36;;;;;;;;;;;;;;;19.63;54.60;102222.50;5034337;28;19951;-36
2022/08/11 01:50:13;;;;;;;;;;;;;;;19.60;52.50;102211.19;5034517;28;19963;-36
2022/08/11 01:52:47;;;;;;;;;;;;;;;19.58;53.49;102211.44;5036071;28;19913;-36
2022/08/11 01:55:32;;;;;;;;;;;;;;;19.56;53.88;102214.41;5036137;28;19917;-36
2022/08/11 01:58:07;;;;;;;;;;;;;;;19.53;54.25;102220.44;5036146;28;19913;-36
2022/08/11 02:00:42;;;;;;;;;;;;;;;19.48;53.21;102225.03;5036345;28;19964;-36
2022/08/11 02:03:35;;;;;;;;;;;;;;;19.50;53.08;102220.13;5036197;28;19959;-36
2022/08/11 02:06:53;;;;;;;;;;;;;;;19.49;52.87;102226.69;5035993;28;19913;-36
2022/08/11 02:08:55;;;;;;;;;;;;;;;19.49;52.68;102223.94;5036483;28;19920;-36
2022/08/11 02:11:29;;;;;;;;;;;;;;;19.45;53.25;102222.81;5036054;28;20281;-36
2022/08/11 02:13:57;;;;;;;;;;;;;;;19.41;53.85;102217.00;5036030;28;19975;-35
2022/08/11 02:16:23;;;;;;;;;;;;;;;19.41;53.58;102221.66;5035869;28;19975;-36
2022/08/11 02:24:33;;;;;;;;;;;;;;;19.34;53.20;102232.84;5036140;28;20340;-36
2022/08/11 02:27:14;;;;;;;;;;;;;;;19.32;53.30;102221.28;5035653;28;19960;-36
2022/08/11 02:30:03;;;;;;;;;;;;;;;19.28;53.13;102229.22;5035843;28;19912;-36
2022/08/11 02:35:27;;;;;;;;;;;;;;;19.22;53.20;102229.38;5036083;28;19987;-36
2022/08/11 02:38:11;;;;;;;;;;;;;;;19.18;53.63;102218.13;5036195;28;19963;-36
2022/08/11 02:40:55;;;;;;;;;;;;;;;19.16;53.15;102216.69;5035883;28;20351;-36
2022/08/11 02:43:32;;;;;;;;;;;;;;;19.11;53.42;102216.63;5035272;28;20327;-36
2022/08/11 02:46:15;;;;;;;;;;;;;;;19.06;53.61;102213.84;5035805;28;20381;-36
2022/08/11 02:51:35;;;;;;;;;;;;;;;18.96;53.54;102211.78;5035458;28;20011;-36
2022/08/11 02:54:19;;;;;;;;;;;;;;;18.92;53.43;102213.38;5035076;28;19913;-36
2022/08/11 02:56:53;;;;;;;;;;;;;;;18.88;53.81;102217.69;5034797;28;19913;-36
2022/08/11 03:02:11;;;;;;;;;;;;;;;18.81;53.85;102219.81;5035560;28;19932;-36
2022/08/11 03:04:36;;;;;;;;;;;;;;;18.78;54.04;102212.91;5035092;28;19924;-36
2022/08/11 03:07:21;;;;;;;;;;;;;;;18.74;54.00;102217.25;5035194;28;20266;-35
2022/08/11 03:09:52;;;;;;;;;;;;;;;18.69;54.36;102226.22;5034855;28;19913;-36
2022/08/11 03:18:33;;;;;;;;;;;;;;;18.61;54.52;102217.56;5013371;28;19936;-35
2022/08/11 03:21:20;;;;;;;;;;;;;;;18.57;54.46;102221.88;5012419;28;19914;-36
2022/08/11 03:24:00;;;;;;;;;;;;;;;18.53;54.50;102218.81;5012480;28;19956;-36
2022/08/11 03:26:31;;;;;;;;;;;;;;;18.48;54.69;102216.81;5012837;28;19924;-36
2022/08/11 03:29:00;;;;;;;;;;;;;;;18.43;54.87;102211.28;5012935;28;20388;-36
2022/08/11 03:31:32;;;;;;;;;;;;;;;18.39;55.56;102214.75;5012371;28;19953;-35
2022/08/11 03:34:06;;;;;;;;;;;;;;;18.37;55.11;102216.94;5012467;28;19919;-36
2022/08/11 03:36:40;;;;;;;;;;;;;;;18.34;56.87;102215.50;5013022;28;20390;-36
2022/08/11 03:39:17;;;;;;;;;;;;;;;18.31;55.66;102220.69;5012617;28;19948;-36
2022/08/11 03:41:43;;;;;;;;;;;;;;;18.28;55.81;102216.50;5012895;28;19917;-36
2022/08/11 03:44:22;;;;;;;;;;;;;;;18.27;55.76;102214.84;5011563;28;19913;-36
2022/08/11 03:46:47;;;;;;;;;;;;;;;18.25;56.24;102215.13;5012516;28;19917;-36
2022/08/11 03:49:22;;;;;;;;;;;;;;;18.25;55.88;102214.25;5011936;28;19919;-36
2022/08/11 03:51:47;;;;;;;;;;;;;;;18.24;56.15;102207.13;5030385;28;20007;-36
2022/08/11 03:54:30;;;;;;;;;;;;;;;18.20;56.16;102209.56;5033616;28;20070;-36
2022/08/11 03:56:56;;;;;;;;;;;;;;;18.18;55.90;102210.88;5034286;28;20276;-35
2022/08/11 03:59:27;;;;;;;;;;;;;;;18.14;56.02;102212.44;5033806;28;20008;-35
2022/08/11 04:01:52;;;;;;;;;;;;;;;18.11;56.91;102208.31;5033591;28;19924;-36
2022/08/11 04:04:36;;;;;;;;;;;;;;;18.09;56.55;102210.44;5034206;28;19917;-36
2022/08/11 04:07:20;;;;;;;;;;;;;;;18.06;56.36;102205.50;5033824;28;19913;-36
2022/08/11 04:09:45;;;;;;;;;;;;;;;18.04;56.57;102207.63;5033486;28;19913;-36
2022/08/11 04:12:24;;;;;;;;;;;;;;;18.00;56.87;102207.28;5033694;28;19920;-36
2022/08/11 04:17:58;;;;;;;;;;;;;;;17.91;56.61;102200.59;5033363;28;19936;-35
2022/08/11 04:20:32;;;;;;;;;;;;;;;17.89;56.92;102207.38;5033580;28;19979;-35
2022/08/11 04:23:17;;;;;;;;;;;;;;;17.87;56.76;102204.06;5033593;28;19913;-35
2022/08/11 04:26:02;;;;;;;;;;;;;;;17.85;56.98;102208.94;5034173;28;19956;-36
2022/08/11 04:28:37;;;;;;;;;;;;;;;17.82;57.24;102204.81;5032899;28;19913;-36
2022/08/11 04:31:05;;;;;;;;;;;;;;;17.80;57.09;102211.59;5033429;28;19928;-36
2022/08/11 04:33:36;;;;;;;;;;;;;;;17.78;57.62;102209.09;5033915;28;19920;-35
2022/08/11 04:36:16;;;;;;;;;;;;;;;17.78;58.07;102206.38;5033073;28;19928;-36
2022/08/11 04:39:10;;;;;;;;;;;;;;;17.78;57.70;102211.84;5033044;28;19913;-35
2022/08/11 04:45:09;;;;;;;;;;;;;;;17.80;57.90;102206.09;5033254;28;19920;-36
2022/08/11 05:02:05;;;;;;;;;;;;;;;17.87;58.51;102217.75;5037613;28;20042;-35
2022/08/11 05:07:48;;;;;;;;;;;;;;;17.96;59.92;102210.78;5037769;28;19927;-35
2022/08/11 05:10:32;;;;;;;;;;;;;;;18.01;58.91;102208.13;5037314;28;19913;-35
2022/08/11 05:27:09;;;;;;;;;;;;;;;18.09;58.69;102204.16;5037358;28;20266;-35
2022/08/11 05:35:48;;;;;;;;;;;;;;;18.56;60.29;102212.03;5014995;28;19920;-35
2022/08/11 05:57:59;;;;;;;;;;;;;;;18.89;61.93;102222.94;5023553;28;19919;-36
2022/08/11 06:00:25;;;;;;;;;;;;;;;18.97;62.21;102221.66;5035947;28;20376;-36
2022/08/11 06:02:54;;;;;;;;;;;;;;;19.06;62.69;102214.66;5036513;28;19966;-36
2022/08/11 06:05:19;;;;;;;;;;;;;;;19.15;61.88;102218.63;5037162;28;19917;-36
2022/08/11 06:07:45;;;;;;;;;;;;;;;19.22;62.57;102208.25;5035993;28;20337;-36
2022/08/11 06:10:10;;;;;;;;;;;;;;;19.13;62.58;102223.53;5036367;28;19913;-36
2022/08/11 06:12:36;;;;;;;;;;;;;;;19.11;62.72;102222.94;5036595;28;19913;-36
2022/08/11 06:15:04;;;;;;;;;;;;;;;19.13;62.82;102226.28;5036072;28;20455;-36
2022/08/11 06:17:31;;;;;;;;;;;;;;;19.22;62.95;102224.72;5036119;28;19913;-36
2022/08/11 06:20:00;;;;;;;;;;;;;;;19.34;62.13;102212.81;5036329;28;20251;-36
2022/08/11 06:22:26;;;;;;;;;;;;;;;19.49;61.50;102223.94;5035726;28;19963;-36
2022/08/11 06:24:59;;;;;;;;;;;;;;;19.59;61.75;102212.25;5036271;28;19940;-36
2022/08/11 06:27:25;;;;;;;;;;;;;;;19.71;61.83;102216.53;5035623;28;20336;-36
2022/08/11 06:29:51;;;;;;;;;;;;;;;19.82;61.93;102224.88;5036380;28;20343;-36
2022/08/11 06:32:17;;;;;;;;;;;;;;;19.92;61.61;102227.72;5035619;28;20003;-36
2022/08/11 06:35:01;;;;;;;;;;;;;;;19.99;61.62;102217.34;5035876;28;19949;-36
2022/08/11 06:37:42;;;;;;;;;;;;;;;20.06;60.98;102220.72;5035513;28;19913;-36
2022/08/11 06:40:10;;;;;;;;;;;;;;;20.16;61.16;102217.22;5035400;28;19920;-36
2022/08/11 06:42:42;;;;;;;;;;;;;;;20.25;60.83;102208.25;5035058;28;19963;-36
2022/08/11 06:45:27;;;;;;;;;;;;;;;20.32;60.30;102221.75;5035030;28;19913;-36
2022/08/11 06:47:54;;;;;;;;;;;;;;;20.42;60.38;102221.00;5034434;28;19917;-36
2022/08/11 06:53:06;;;;;;;;;;;;;;;20.50;58.76;102217.78;5035601;28;20292;-36
2022/08/11 07:01:05;;;;;;;;;;;;;;;20.76;59.06;102227.00;5035664;28;20430;-36
2022/08/11 07:03:33;;;;;;;;;;;;;;;20.84;58.21;102221.03;5034835;28;19913;-36
2022/08/11 07:06:22;;;;;;;;;;;;;;;20.92;58.57;102223.25;5035139;28;19913;-36
2022/08/11 07:28:53;;;;;;;;;;;;;;;21.33;56.33;102221.53;4955099;29;19978;-37
2022/08/11 07:28:57;;;;;;;;;;;;;;;21.75;54.09;102216.94;4954462;29;20310;-36
2022/08/11 07:31:28;;;;;;;;;;;;;;;21.82;54.40;102215.59;4954255;29;19924;-37
2022/08/11 07:34:07;;;;;;;;;;;;;;;21.91;54.30;102213.13;4954119;29;19914;-36
2022/08/11 07:36:34;;;;;;;;;;;;;;;22.03;53.84;102215.59;4954469;29;20402;-36
2022/08/11 07:38:59;;;;;;;;;;;;;;;22.12;53.81;102216.75;4953937;29;20017;-36
2022/08/11 07:41:27;;;;;;;;;;;;;;;22.22;53.72;102221.44;4954116;29;19953;-36
2022/08/11 07:43:54;;;;;;;;;;;;;;;22.32;52.85;102224.19;4954041;29;19949;-36
2022/08/11 07:54:35;;;;;;;;;;;;;;;22.74;53.39;102218.31;5034173;28;19920;-36
2022/08/11 08:18:55;;;;;;;;;;;;;;;23.53;46.64;102221.34;5033788;28;19967;-36
2022/08/11 08:21:21;;;;;;;;;;;;;;;23.62;48.29;102212.16;5033921;28;19916;-36
2022/08/11 08:23:46;;;;;;;;;;;;;;;23.76;46.37;102222.56;5034039;28;19913;-37
2022/08/11 08:31:48;;;;;;;;;;;;;;;24.02;44.16;102217.72;5033777;28;19936;-37
2022/08/11 08:34:17;;;;;;;;;;;;;;;24.05;45.26;102208.81;5033430;28;19940;-36
2022/08/11 08:36:46;;;;;;;;;;;;;;;24.16;44.72;102210.41;5033766;28;19924;-37
2022/08/11 08:39:12;;;;;;;;;;;;;;;24.28;45.79;102216.34;5033142;28;20350;-37
2022/08/11 08:41:38;;;;;;;;;;;;;;;24.39;45.76;102215.16;5033193;28;20392;-36
2022/08/11 08:44:08;;;;;;;;;;;;;;;24.51;45.30;102211.22;5033447;28;19917;-36
2022/08/11 08:46:39;;;;;;;;;;;;;;;24.64;44.93;102207.72;5033847;28;19912;-36
2022/08/11 08:49:06;;;;;;;;;;;;;;;24.71;43.60;102205.47;5033033;28;19920;-36
2022/08/11 08:51:34;;;;;;;;;;;;;;;24.74;42.52;102204.84;5033513;28;19935;-37
2022/08/11 08:54:03;;;;;;;;;;;;;;;24.80;42.62;102212.00;5033492;28;19913;-37
2022/08/11 08:56:30;;;;;;;;;;;;;;;24.78;43.34;102205.91;5032828;28;19920;-37
2022/08/11 08:58:57;;;;;;;;;;;;;;;24.85;42.85;102213.88;5033196;28;20015;-36
2022/08/11 09:01:24;;;;;;;;;;;;;;;24.93;42.68;102210.44;5033191;28;19917;-37
2022/08/11 09:03:49;;;;;;;;;;;;;;;25.10;43.14;102207.25;5033210;28;19917;-36
2022/08/11 09:06:16;;;;;;;;;;;;;;;25.25;43.08;102206.22;5033615;28;20253;-36
2022/08/11 09:08:42;;;;;;;;;;;;;;;25.30;42.55;102201.44;5032830;28;20024;-36
2022/08/11 09:13:53;;;;;;;;;;;;;;;25.50;40.64;102205.03;5032893;28;19967;-37
2022/08/11 09:16:18;;;;;;;;;;;;;;;25.61;41.87;102195.44;5032931;28;19912;-37
2022/08/11 09:18:44;;;;;;;;;;;;;;;25.76;42.65;102194.41;5032775;28;19917;-37
2022/08/11 09:21:10;;;;;;;;;;;;;;;25.89;41.69;102202.78;5033587;28;19913;-37
2022/08/11 09:29:07;;;;;;;;;;;;;;;26.29;38.52;102194.06;5033208;28;19919;-36
2022/08/11 09:31:32;;;;;;;;;;;;;;;26.36;39.66;102194.50;5032979;28;19928;-36
2022/08/11 09:33:58;;;;;;;;;;;;;;;26.53;40.71;102191.16;5033133;28;19913;-37
2022/08/11 09:41:53;;;;;;;;;;;;;;;26.93;37.89;102182.00;5032995;28;20408;-37
2022/08/11 09:47:04;;;;;;;;;;;;;;;27.02;37.95;102184.06;5036926;28;19963;-37
2022/08/11 09:49:30;;;;;;;;;;;;;;;27.04;37.26;102184.59;5036162;28;19913;-37
2022/08/11 09:51:55;;;;;;;;;;;;;;;27.11;38.10;102188.59;5034877;28;19989;-37
2022/08/11 09:54:22;;;;;;;;;;;;;;;27.10;36.20;102186.16;5036338;28;19924;-36
2022/08/11 09:59:35;;;;;;;;;;;;;;;27.39;38.49;102169.13;5036634;28;20307;-36
2022/08/11 10:02:01;;;;;;;;;;;;;;;27.59;38.00;102170.59;5036282;28;19944;-37
2022/08/11 10:04:30;;;;;;;;;;;;;;;27.69;37.06;102171.16;5036382;28;20317;-37
2022/08/11 10:07:02;;;;;;;;;;;;;;;27.84;37.21;102169.19;5035849;28;19959;-37
2022/08/11 10:09:42;;;;;;;;;;;;;;;27.75;34.71;102171.06;5036202;28;19921;-37
2022/08/11 10:12:09;;;;;;;;;;;;;;;27.81;35.43;102161.47;5036109;28;19952;-37
2022/08/11 10:17:21;;;;;;;;;;;;;;;27.96;35.08;102161.91;5036255;28;19919;-37
2022/08/11 10:19:47;;;;;;;;;;;;;;;28.09;35.20;102156.56;5035944;28;20363;-37
2022/08/11 10:28:01;;;;;;;;;;;;;;;28.43;34.14;102156.78;5013944;28;20348;-36
2022/08/11 10:35:57;;;;;;;;;;;;;;;28.63;31.41;102154.56;5014064;28;20030;-36
2022/08/11 10:38:22;;;;;;;;;;;;;;;28.71;31.92;102148.22;5013882;28;19924;-36
2022/08/11 10:43:01;;;;;;;;;;;;;;;28.80;33.09;102143.50;5013611;28;20273;-36
2022/08/11 10:43:36;;;;;;;;;;;;;;;29.00;32.26;102147.66;5013286;28;19920;-36
2022/08/11 10:48:45;;;;;;;;;;;;;;;29.27;32.40;102145.72;5014103;28;19955;-36
2022/08/11 10:51:14;;;;;;;;;;;;;;;29.37;31.61;102135.06;5013746;28;20330;-36
2022/08/11 10:59:27;;;;;;;;;;;;;;;29.47;31.27;102139.47;5026745;28;19920;-36
2022/08/11 11:01:53;;;;;;;;;;;;;;;29.53;30.90;102135.41;5035415;28;19979;-36
2022/08/11 11:04:32;;;;;;;;;;;;;;;29.58;30.52;102134.44;5035220;28;19999;-36
2022/08/11 11:07:12;;;;;;;;;;;;;;;29.62;30.90;102129.81;5035506;28;19963;-36
2022/08/11 11:09:47;;;;;;;;;;;;;;;29.63;30.50;102123.13;5035095;28;19939;-36
2022/08/11 11:17:55;;;;;;;;;;;;;;;29.94;30.67;102120.91;5035442;28;19963;-36
2022/08/11 11:20:26;;;;;;;;;;;;;;;30.08;29.64;102114.31;5035399;28;19935;-36
2022/08/11 11:22:53;;;;;;;;;;;;;;;30.12;29.69;102115.31;5034540;28;19964;-35
2022/08/11 11:25:20;;;;;;;;;;;;;;;30.06;28.46;102116.63;5034106;28;19913;-36
2022/08/11 11:27:48;;;;;;;;;;;;;;;30.09;29.66;102115.94;5034877;28;20353;-37
2022/08/11 11:30:15;;;;;;;;;;;;;;;30.15;29.21;102118.25;5033650;28;19920;-36
2022/08/11 11:32:47;;;;;;;;;;;;;;;30.12;28.39;102112.50;5034593;28;19960;-36
2022/08/11 11:35:31;;;;;;;;;;;;;;;30.10;28.39;102109.22;5035148;28;19924;-34
2022/08/11 11:37:57;;;;;;;;;;;;;;;30.22;28.76;102114.97;5034478;28;19920;-36
2022/08/11 11:40:23;;;;;;;;;;;;;;;30.27;28.02;102110.00;5035173;28;19924;-37
2022/08/11 11:42:49;;;;;;;;;;;;;;;30.30;29.33;102099.31;5034375;28;19913;-36
2022/08/11 11:45:19;;;;;;;;;;;;;;;30.05;28.24;102101.03;5034521;28;19913;-35
2022/08/11 11:47:46;;;;;;;;;;;;;;;30.13;28.93;102111.38;5034054;28;20395;-35
2022/08/11 11:50:12;;;;;;;;;;;;;;;30.24;28.46;102105.09;5034496;28;19929;-35
2022/08/11 11:52:39;;;;;;;;;;;;;;;30.28;28.15;102091.28;5033831;28;19920;-36
2022/08/11 11:55:05;;;;;;;;;;;;;;;30.33;26.71;102087.50;5034553;28;19923;-35
2022/08/11 12:03:02;;;;;;;;;;;;;;;30.68;26.07;102088.13;5011874;28;20330;-36
2022/08/11 12:05:30;;;;;;;;;;;;;;;30.78;26.93;102076.59;5011251;28;20317;-36
2022/08/11 12:13:49;;;;;;;;;;;;;;;31.07;25.50;102077.69;5011834;28;19988;-34
2022/08/11 12:16:15;;;;;;;;;;;;;;;31.06;27.11;102073.25;5012386;28;19920;-36
2022/08/11 12:18:41;;;;;;;;;;;;;;;31.13;25.83;102076.31;5011567;28;20007;-36
2022/08/11 12:21:07;;;;;;;;;;;;;;;31.08;25.69;102074.53;5011833;28;19913;-36
2022/08/11 12:29:03;;;;;;;;;;;;;;;31.26;25.91;102062.09;5011891;28;19963;-36
2022/08/11 12:31:29;;;;;;;;;;;;;;;31.46;27.00;102062.41;5011770;28;20004;-36
2022/08/11 12:34:02;;;;;;;;;;;;;;;31.47;26.31;102064.03;5011864;28;20394;-36
2022/08/11 12:36:28;;;;;;;;;;;;;;;31.34;25.50;102056.78;5011933;28;19916;-36
2022/08/11 12:38:54;;;;;;;;;;;;;;;31.36;25.02;102060.03;5011680;28;19913;-36
2022/08/11 12:47:07;;;;;;;;;;;;;;;31.65;26.43;102043.13;5011526;28;20409;-36
2022/08/11 12:52:24;;;;;;;;;;;;;;;31.76;26.65;102037.91;5011939;28;19920;-36
2022/08/11 12:55:01;;;;;;;;;;;;;;;31.93;26.89;102023.75;5011261;28;19913;-36
2022/08/11 13:05:40;;;;;;;;;;;;;;;32.09;24.84;102018.25;5011493;28;19925;-35
2022/08/11 13:08:06;;;;;;;;;;;;;;;31.98;24.50;102014.31;5011918;28;19923;-36
2022/08/11 13:13:17;;;;;;;;;;;;;;;32.12;25.84;102008.38;5000699;28;19925;-36
2022/08/11 13:15:42;;;;;;;;;;;;;;;31.94;23.26;102007.78;5011107;28;19956;-36
2022/08/11 13:18:08;;;;;;;;;;;;;;;31.85;23.47;102010.66;5013677;28;19949;-36
2022/08/11 13:20:34;;;;;;;;;;;;;;;32.03;24.43;102003.69;5021863;28;19976;-36
2022/08/11 13:23:00;;;;;;;;;;;;;;;32.04;24.77;101994.13;5037625;28;19936;-36
2022/08/11 13:25:26;;;;;;;;;;;;;;;32.14;25.32;102001.25;5037091;28;19962;-36
2022/08/11 13:27:54;;;;;;;;;;;;;;;32.13;23.75;101996.81;5036560;28;20369;-36
2022/08/11 13:33:06;;;;;;;;;;;;;;;32.09;23.79;101990.28;5037453;28;19920;-36
2022/08/11 13:35:32;;;;;;;;;;;;;;;32.22;24.28;101979.91;5037541;28;19921;-36
2022/08/11 13:38:00;;;;;;;;;;;;;;;32.44;24.42;101989.81;5036764;28;20012;-36
2022/08/11 13:40:26;;;;;;;;;;;;;;;32.40;23.10;101984.09;5036803;28;19952;-37
2022/08/11 13:42:51;;;;;;;;;;;;;;;32.49;22.75;101983.97;5036835;28;20379;-36
2022/08/11 13:45:18;;;;;;;;;;;;;;;32.63;24.54;101987.19;5037470;28;19917;-36
2022/08/11 13:47:43;;;;;;;;;;;;;;;32.74;24.38;101979.91;5036788;28;19917;-36
2022/08/11 13:50:11;;;;;;;;;;;;;;;32.86;24.34;101973.47;5036652;28;20376;-36
2022/08/11 13:52:39;;;;;;;;;;;;;;;32.94;23.44;101975.34;5036713;28;19917;-37
2022/08/11 13:55:09;;;;;;;;;;;;;;;32.73;23.30;101975.50;5036340;28;19920;-37
2022/08/11 13:57:35;;;;;;;;;;;;;;;32.39;22.46;101976.88;5037062;28;20307;-36
2022/08/11 14:00:09;;;;;;;;;;;;;;;32.47;23.14;101975.94;5037443;28;19917;-36
2022/08/11 14:02:40;;;;;;;;;;;;;;;32.41;24.04;101977.34;5056159;28;19917;-37
2022/08/11 14:05:16;;;;;;;;;;;;;;;32.59;24.32;101968.66;5055249;28;19916;-41
2022/08/11 14:07:47;;;;;;;;;;;;;;;32.50;21.87;101972.44;5056768;28;19917;-37
2022/08/11 14:10:14;;;;;;;;;;;;;;;32.47;22.02;101967.53;5050716;28;19924;-37
2022/08/11 14:15:30;;;;;;;;;;;;;;;32.65;23.37;101958.81;5048316;28;19958;-37
2022/08/11 14:18:00;;;;;;;;;;;;;;;32.76;22.84;101954.38;5055525;28;20039;-43
2022/08/11 14:22:05;;;;;;;;;;;;;;;32.74;22.25;101959.50;5055754;28;19935;-37
2022/08/11 14:23:13;;;;;;;;;;;;;;;32.65;22.65;101958.81;5055454;28;19936;-36
2022/08/11 14:26:22;;;;;;;;;;;;;;;32.55;21.84;101951.75;5055978;28;19920;-36
2022/08/11 14:28:24;;;;;;;;;;;;;;;32.68;23.45;101953.34;5055058;28;19913;-36
2022/08/11 14:30:55;;;;;;;;;;;;;;;32.61;21.26;101950.34;5055846;28;19947;-36
2022/08/11 14:33:20;;;;;;;;;;;;;;;32.53;20.96;101949.31;5054857;28;19913;-36
2022/08/11 14:35:46;;;;;;;;;;;;;;;32.51;21.25;101945.25;5054222;28;20019;-36
2022/08/11 14:38:11;;;;;;;;;;;;;;;32.65;21.03;101950.44;5055495;28;19916;-36
2022/08/11 14:48:53;;;;;;;;;;;;;;;32.79;21.92;101929.25;5053791;28;19920;-36
2022/08/11 14:51:20;;;;;;;;;;;;;;;33.03;22.43;101933.13;5052451;28;19913;-36
2022/08/11 14:53:46;;;;;;;;;;;;;;;33.06;20.81;101936.03;5032928;28;20048;-36
2022/08/11 14:58:55;;;;;;;;;;;;;;;32.98;20.50;101931.41;5033508;28;19984;-36
2022/08/11 15:04:05;;;;;;;;;;;;;;;32.88;22.45;101928.28;5032947;28;20317;-37
2022/08/11 15:06:32;;;;;;;;;;;;;;;32.89;22.11;101916.72;5032846;28;19912;-36
2022/08/11 15:08:57;;;;;;;;;;;;;;;33.01;22.22;101913.91;5032538;28;19913;-37
2022/08/11 15:14:08;;;;;;;;;;;;;;;32.97;22.20;101918.59;5033375;28;19920;-36
2022/08/11 15:19:22;;;;;;;;;;;;;;;32.91;22.03;101902.41;5033041;28;20343;-36
2022/08/11 15:24:34;;;;;;;;;;;;;;;32.94;22.37;101907.28;5034833;28;19924;-36
2022/08/11 15:38:00;;;;;;;;;;;;;;;32.73;22.16;101894.28;5035041;28;19964;-36
2022/08/11 15:46:29;;;;;;;;;;;;;;;32.44;22.68;101895.44;5034043;28;20295;-37
2022/08/11 15:49:02;;;;;;;;;;;;;;;32.47;22.19;101888.34;5034247;28;20044;-37
2022/08/11 15:51:35;;;;;;;;;;;;;;;32.43;23.29;101882.63;5035504;28;19951;-35
2022/08/11 15:54:10;;;;;;;;;;;;;;;32.41;23.34;101882.19;5034716;28;19956;-36
2022/08/11 15:56:38;;;;;;;;;;;;;;;32.37;23.04;101884.06;5034160;28;19944;-36
2022/08/11 16:04:35;;;;;;;;;;;;;;;32.23;23.41;101886.41;5034120;28;19963;-36
2022/08/11 16:07:05;;;;;;;;;;;;;;;32.13;23.64;101870.09;5034183;28;19920;-37
2022/08/11 16:09:36;;;;;;;;;;;;;;;32.03;23.55;101872.22;5034266;28;19920;-36
2022/08/11 16:12:04;;;;;;;;;;;;;;;31.82;23.57;101871.56;5034635;28;20289;-36
2022/08/11 16:17:17;;;;;;;;;;;;;;;31.38;24.08;101874.09;5034273;28;19962;-36
2022/08/11 16:19:44;;;;;;;;;;;;;;;31.32;24.69;101863.47;5033554;28;19917;-36
2022/08/11 16:22:11;;;;;;;;;;;;;;;31.19;24.46;101857.88;5034590;28;19913;-36
2022/08/11 16:24:38;;;;;;;;;;;;;;;31.09;24.41;101861.13;5034157;28;19928;-36
2022/08/11 16:27:05;;;;;;;;;;;;;;;31.07;25.17;101866.22;5034114;28;20356;-36
2022/08/11 16:29:31;;;;;;;;;;;;;;;30.94;25.06;101862.59;5033581;28;19943;-36
2022/08/11 16:40:10;;;;;;;;;;;;;;;30.79;25.05;101857.63;5033645;28;20012;-36
2022/08/11 16:48:13;;;;;;;;;;;;;;;30.57;25.08;101846.84;4992126;28;20008;-36
2022/08/11 16:50:40;;;;;;;;;;;;;;;30.51;25.76;101854.63;4992364;28;20000;-36
2022/08/11 16:53:05;;;;;;;;;;;;;;;30.49;26.06;101851.34;4991673;28;20019;-36
2022/08/11 16:55:32;;;;;;;;;;;;;;;30.44;26.42;101857.94;4991814;28;19914;-36
2022/08/11 17:00:42;;;;;;;;;;;;;;;30.33;26.57;101845.59;4991597;28;19924;-36
2022/08/11 17:14:17;;;;;;;;;;;;;;;30.07;26.38;101840.19;4992109;28;19956;-36
2022/08/11 17:16:44;;;;;;;;;;;;;;;30.06;26.88;101843.31;4991864;28;20052;-36
2022/08/11 17:19:12;;;;;;;;;;;;;;;30.06;27.00;101840.50;4991546;28;20010;-36
2022/08/11 17:24:26;;;;;;;;;;;;;;;30.01;27.39;101850.75;5015105;28;19921;-36
2022/08/11 17:26:54;;;;;;;;;;;;;;;29.95;27.64;101843.69;5033198;28;20487;-36
2022/08/11 17:29:25;;;;;;;;;;;;;;;29.91;27.97;101842.75;5032978;28;20388;-36
2022/08/11 17:37:21;;;;;;;;;;;;;;;29.73;28.18;101842.06;5033745;28;20014;-36
2022/08/11 17:39:48;;;;;;;;;;;;;;;29.69;28.43;101841.09;5032956;28;20047;-37
2022/08/11 17:50:26;;;;;;;;;;;;;;;29.45;29.00;101844.47;5033215;28;20276;-37
2022/08/11 18:01:07;;;;;;;;;;;;;;;29.19;29.25;101849.34;5033055;28;20388;-37
2022/08/11 18:03:38;;;;;;;;;;;;;;;29.10;29.59;101848.56;5033911;28;20012;-36
2022/08/11 18:06:04;;;;;;;;;;;;;;;29.03;29.73;101851.03;5036817;28;20372;-36
